sensor_id;sensor_type;location;lat;lon;timestamp;P1;durP1;ratioP1;P2;durP2;ratioP2
18407;SDS011;9330;52.210;21.174;2023-03-31T00:01:05;15.48;;;13.07;;
18407;SDS011;9330;52.210;21.174;2023-03-31T00:03:32;16.45;;;14.27;;
18407;SDS011;9330;52.210;21.174;2023-03-31T00:06:03;16.73;;;12.75;;
18407;SDS011;9330;52.210;21.174;2023-03-31T00:08:30;14.32;;;12.82;;
18407;SDS011;9330;52.210;21.174;2023-03-31T00:11:00;14.43;;;12.32;;
18407;SDS011;9330;52.210;21.174;2023-03-31T00:13:28;14.88;;;12.55;;
18407;SDS011;9330;52.210;21.174;2023-03-31T00:15:57;15.65;;;13.00;;
18407;SDS011;9330;52.210;21.174;2023-03-31T00:18:26;12.63;;;10.27;;
18407;SDS011;9330;52.210;21.174;2023-03-31T00:20:54;12.93;;;11.25;;
18407;SDS011;9330;52.210;21.174;2023-03-31T00:23:26;14.45;;;12.93;;
18407;SDS011;9330;52.210;21.174;2023-03-31T00:25:53;13.90;;;10.63;;
18407;SDS011;9330;52.210;21.174;2023-03-31T00:28:20;14.18;;;11.50;;
18407;SDS011;9330;52.210;21.174;2023-03-31T00:30:47;11.45;;;10.05;;
18407;SDS011;9330;52.210;21.174;2023-03-31T00:33:17;12.50;;;11.13;;
18407;SDS011;9330;52.210;21.174;2023-03-31T00:35:43;12.68;;;11.38;;
18407;SDS011;9330;52.210;21.174;2023-03-31T00:38:10;14.00;;;11.18;;
18407;SDS011;9330;52.210;21.174;2023-03-31T00:40:43;12.73;;;10.48;;
18407;SDS011;9330;52.210;21.174;2023-03-31T00:43:18;11.40;;;10.20;;
18407;SDS011;9330;52.210;21.174;2023-03-31T00:45:51;12.38;;;9.93;;
18407;SDS011;9330;52.210;21.174;2023-03-31T00:48:20;12.40;;;10.30;;
18407;SDS011;9330;52.210;21.174;2023-03-31T00:50:49;12.90;;;10.45;;
18407;SDS011;9330;52.210;21.174;2023-03-31T00:53:19;13.25;;;10.25;;
18407;SDS011;9330;52.210;21.174;2023-03-31T00:55:52;13.10;;;10.60;;
18407;SDS011;9330;52.210;21.174;2023-03-31T00:58:21;11.80;;;10.00;;
18407;SDS011;9330;52.210;21.174;2023-03-31T01:00:52;10.82;;;9.70;;
18407;SDS011;9330;52.210;21.174;2023-03-31T01:03:24;13.13;;;9.68;;
18407;SDS011;9330;52.210;21.174;2023-03-31T01:05:52;12.20;;;10.52;;
18407;SDS011;9330;52.210;21.174;2023-03-31T01:08:22;13.13;;;10.35;;
18407;SDS011;9330;52.210;21.174;2023-03-31T01:10:52;13.95;;;10.07;;
18407;SDS011;9330;52.210;21.174;2023-03-31T01:13:21;13.15;;;10.18;;
18407;SDS011;9330;52.210;21.174;2023-03-31T01:15:50;13.00;;;11.25;;
18407;SDS011;9330;52.210;21.174;2023-03-31T01:18:17;11.85;;;10.25;;
18407;SDS011;9330;52.210;21.174;2023-03-31T01:20:54;14.75;;;13.20;;
18407;SDS011;9330;52.210;21.174;2023-03-31T01:27:00;11.23;;;9.48;;
18407;SDS011;9330;52.210;21.174;2023-03-31T01:30:03;10.63;;;8.73;;
18407;SDS011;9330;52.210;21.174;2023-03-31T01:33:07;11.48;;;8.77;;
18407;SDS011;9330;52.210;21.174;2023-03-31T01:36:02;12.98;;;8.60;;
18407;SDS011;9330;52.210;21.174;2023-03-31T01:39:01;11.55;;;8.18;;
18407;SDS011;9330;52.210;21.174;2023-03-31T01:41:53;10.23;;;8.30;;
18407;SDS011;9330;52.210;21.174;2023-03-31T01:44:29;10.30;;;9.02;;
18407;SDS011;9330;52.210;21.174;2023-03-31T01:47:05;9.07;;;8.10;;
18407;SDS011;9330;52.210;21.174;2023-03-31T01:49:37;9.88;;;8.48;;
18407;SDS011;9330;52.210;21.174;2023-03-31T01:52:10;12.20;;;9.40;;
18407;SDS011;9330;52.210;21.174;2023-03-31T01:54:45;10.43;;;9.30;;
18407;SDS011;9330;52.210;21.174;2023-03-31T01:57:17;14.65;;;11.38;;
18407;SDS011;9330;52.210;21.174;2023-03-31T01:59:48;11.43;;;9.80;;
18407;SDS011;9330;52.210;21.174;2023-03-31T02:02:21;11.80;;;10.60;;
18407;SDS011;9330;52.210;21.174;2023-03-31T02:04:54;11.07;;;9.95;;
18407;SDS011;9330;52.210;21.174;2023-03-31T02:07:26;11.63;;;9.57;;
18407;SDS011;9330;52.210;21.174;2023-03-31T02:09:58;11.10;;;10.00;;
18407;SDS011;9330;52.210;21.174;2023-03-31T02:12:31;11.20;;;10.00;;
18407;SDS011;9330;52.210;21.174;2023-03-31T02:15:02;11.43;;;9.35;;
18407;SDS011;9330;52.210;21.174;2023-03-31T02:17:33;13.00;;;10.13;;
18407;SDS011;9330;52.210;21.174;2023-03-31T02:20:05;9.95;;;8.85;;
18407;SDS011;9330;52.210;21.174;2023-03-31T02:22:37;11.68;;;9.48;;
18407;SDS011;9330;52.210;21.174;2023-03-31T02:25:07;11.30;;;9.77;;
18407;SDS011;9330;52.210;21.174;2023-03-31T02:27:40;11.32;;;9.15;;
18407;SDS011;9330;52.210;21.174;2023-03-31T02:30:10;10.35;;;9.25;;
18407;SDS011;9330;52.210;21.174;2023-03-31T02:32:39;10.70;;;8.95;;
18407;SDS011;9330;52.210;21.174;2023-03-31T02:35:10;10.88;;;9.60;;
18407;SDS011;9330;52.210;21.174;2023-03-31T02:37:40;9.90;;;8.90;;
18407;SDS011;9330;52.210;21.174;2023-03-31T02:40:10;11.20;;;9.40;;
18407;SDS011;9330;52.210;21.174;2023-03-31T02:42:43;10.98;;;8.88;;
18407;SDS011;9330;52.210;21.174;2023-03-31T02:48:06;10.63;;;8.75;;
18407;SDS011;9330;52.210;21.174;2023-03-31T02:50:40;10.05;;;8.90;;
18407;SDS011;9330;52.210;21.174;2023-03-31T02:53:22;12.73;;;8.88;;
18407;SDS011;9330;52.210;21.174;2023-03-31T02:55:57;12.73;;;9.07;;
18407;SDS011;9330;52.210;21.174;2023-03-31T03:04:11;11.15;;;8.75;;
18407;SDS011;9330;52.210;21.174;2023-03-31T03:06:51;9.20;;;8.27;;
18407;SDS011;9330;52.210;21.174;2023-03-31T03:09:25;12.45;;;8.98;;
18407;SDS011;9330;52.210;21.174;2023-03-31T03:12:04;10.00;;;8.93;;
18407;SDS011;9330;52.210;21.174;2023-03-31T03:14:38;10.07;;;8.68;;
18407;SDS011;9330;52.210;21.174;2023-03-31T03:17:13;10.70;;;9.60;;
18407;SDS011;9330;52.210;21.174;2023-03-31T03:19:49;10.80;;;9.65;;
18407;SDS011;9330;52.210;21.174;2023-03-31T03:22:18;9.48;;;8.25;;
18407;SDS011;9330;52.210;21.174;2023-03-31T03:24:45;11.10;;;9.55;;
18407;SDS011;9330;52.210;21.174;2023-03-31T03:27:12;10.40;;;9.20;;
18407;SDS011;9330;52.210;21.174;2023-03-31T03:29:40;10.27;;;9.00;;
18407;SDS011;9330;52.210;21.174;2023-03-31T03:32:08;9.52;;;8.60;;
18407;SDS011;9330;52.210;21.174;2023-03-31T03:34:34;9.77;;;8.70;;
18407;SDS011;9330;52.210;21.174;2023-03-31T03:37:02;10.43;;;9.32;;
18407;SDS011;9330;52.210;21.174;2023-03-31T03:39:29;10.98;;;9.77;;
18407;SDS011;9330;52.210;21.174;2023-03-31T03:41:56;9.40;;;8.45;;
18407;SDS011;9330;52.210;21.174;2023-03-31T03:44:23;10.43;;;8.35;;
18407;SDS011;9330;52.210;21.174;2023-03-31T03:46:52;10.55;;;9.13;;
18407;SDS011;9330;52.210;21.174;2023-03-31T03:49:19;9.15;;;8.35;;
18407;SDS011;9330;52.210;21.174;2023-03-31T03:51:46;9.65;;;8.65;;
18407;SDS011;9330;52.210;21.174;2023-03-31T03:54:13;10.00;;;9.00;;
18407;SDS011;9330;52.210;21.174;2023-03-31T03:56:40;10.52;;;9.43;;
18407;SDS011;9330;52.210;21.174;2023-03-31T03:59:07;9.30;;;8.40;;
18407;SDS011;9330;52.210;21.174;2023-03-31T04:01:33;10.38;;;9.18;;
18407;SDS011;9330;52.210;21.174;2023-03-31T04:04:02;9.60;;;8.60;;
18407;SDS011;9330;52.210;21.174;2023-03-31T04:06:29;8.85;;;7.95;;
18407;SDS011;9330;52.210;21.174;2023-03-31T04:08:56;11.07;;;9.20;;
18407;SDS011;9330;52.210;21.174;2023-03-31T04:11:23;11.25;;;9.68;;
18407;SDS011;9330;52.210;21.174;2023-03-31T04:13:50;10.73;;;9.00;;
18407;SDS011;9330;52.210;21.174;2023-03-31T04:16:17;10.82;;;9.73;;
18407;SDS011;9330;52.210;21.174;2023-03-31T04:18:44;11.95;;;9.07;;
18407;SDS011;9330;52.210;21.174;2023-03-31T04:21:14;10.68;;;9.50;;
18407;SDS011;9330;52.210;21.174;2023-03-31T04:23:47;11.60;;;10.50;;
18407;SDS011;9330;52.210;21.174;2023-03-31T04:26:15;11.63;;;9.82;;
18407;SDS011;9330;52.210;21.174;2023-03-31T04:28:50;11.95;;;10.25;;
18407;SDS011;9330;52.210;21.174;2023-03-31T04:31:17;10.50;;;9.45;;
18407;SDS011;9330;52.210;21.174;2023-03-31T04:33:49;11.15;;;9.98;;
18407;SDS011;9330;52.210;21.174;2023-03-31T04:36:17;10.85;;;9.75;;
18407;SDS011;9330;52.210;21.174;2023-03-31T04:38:44;11.35;;;10.20;;
18407;SDS011;9330;52.210;21.174;2023-03-31T04:41:14;10.70;;;9.60;;
18407;SDS011;9330;52.210;21.174;2023-03-31T04:43:41;11.55;;;10.05;;
18407;SDS011;9330;52.210;21.174;2023-03-31T04:46:08;10.82;;;9.82;;
18407;SDS011;9330;52.210;21.174;2023-03-31T04:48:35;10.90;;;9.63;;
18407;SDS011;9330;52.210;21.174;2023-03-31T04:51:02;12.15;;;9.77;;
18407;SDS011;9330;52.210;21.174;2023-03-31T04:53:31;10.80;;;9.50;;
18407;SDS011;9330;52.210;21.174;2023-03-31T04:55:58;10.88;;;9.77;;
18407;SDS011;9330;52.210;21.174;2023-03-31T04:58:25;10.90;;;9.55;;
18407;SDS011;9330;52.210;21.174;2023-03-31T05:00:52;10.73;;;9.52;;
18407;SDS011;9330;52.210;21.174;2023-03-31T05:03:19;10.85;;;9.80;;
18407;SDS011;9330;52.210;21.174;2023-03-31T05:05:46;12.43;;;10.35;;
18407;SDS011;9330;52.210;21.174;2023-03-31T05:08:13;11.00;;;9.90;;
18407;SDS011;9330;52.210;21.174;2023-03-31T05:10:41;11.85;;;10.43;;
18407;SDS011;9330;52.210;21.174;2023-03-31T05:13:08;11.95;;;9.95;;
18407;SDS011;9330;52.210;21.174;2023-03-31T05:15:36;11.52;;;10.32;;
18407;SDS011;9330;52.210;21.174;2023-03-31T05:18:03;11.10;;;10.00;;
18407;SDS011;9330;52.210;21.174;2023-03-31T05:20:30;13.80;;;11.13;;
18407;SDS011;9330;52.210;21.174;2023-03-31T05:22:57;13.65;;;11.40;;
18407;SDS011;9330;52.210;21.174;2023-03-31T05:25:24;12.88;;;11.32;;
18407;SDS011;9330;52.210;21.174;2023-03-31T05:27:58;14.73;;;11.43;;
18407;SDS011;9330;52.210;21.174;2023-03-31T05:30:26;15.68;;;12.15;;
18407;SDS011;9330;52.210;21.174;2023-03-31T05:32:53;14.05;;;12.48;;
18407;SDS011;9330;52.210;21.174;2023-03-31T05:35:21;16.48;;;13.27;;
18407;SDS011;9330;52.210;21.174;2023-03-31T05:37:48;15.80;;;13.05;;
18407;SDS011;9330;52.210;21.174;2023-03-31T05:40:15;16.20;;;14.35;;
18407;SDS011;9330;52.210;21.174;2023-03-31T05:42:42;14.75;;;12.52;;
18407;SDS011;9330;52.210;21.174;2023-03-31T05:45:10;16.35;;;13.52;;
18407;SDS011;9330;52.210;21.174;2023-03-31T05:47:37;15.30;;;13.70;;
18407;SDS011;9330;52.210;21.174;2023-03-31T05:50:05;15.43;;;13.82;;
18407;SDS011;9330;52.210;21.174;2023-03-31T05:52:33;14.90;;;13.25;;
18407;SDS011;9330;52.210;21.174;2023-03-31T05:55:00;14.52;;;12.77;;
18407;SDS011;9330;52.210;21.174;2023-03-31T05:57:28;19.20;;;13.70;;
18407;SDS011;9330;52.210;21.174;2023-03-31T05:59:55;18.63;;;13.90;;
18407;SDS011;9330;52.210;21.174;2023-03-31T06:02:23;15.48;;;12.68;;
18407;SDS011;9330;52.210;21.174;2023-03-31T06:04:50;14.98;;;13.35;;
18407;SDS011;9330;52.210;21.174;2023-03-31T06:07:17;14.23;;;12.63;;
18407;SDS011;9330;52.210;21.174;2023-03-31T06:09:44;18.58;;;13.32;;
18407;SDS011;9330;52.210;21.174;2023-03-31T06:12:11;20.40;;;13.95;;
18407;SDS011;9330;52.210;21.174;2023-03-31T06:14:38;16.08;;;12.65;;
18407;SDS011;9330;52.210;21.174;2023-03-31T06:17:05;17.33;;;13.13;;
18407;SDS011;9330;52.210;21.174;2023-03-31T06:19:33;17.70;;;12.80;;
18407;SDS011;9330;52.210;21.174;2023-03-31T06:22:00;14.43;;;12.32;;
18407;SDS011;9330;52.210;21.174;2023-03-31T06:24:27;15.63;;;12.85;;
18407;SDS011;9330;52.210;21.174;2023-03-31T06:26:54;14.20;;;11.57;;
18407;SDS011;9330;52.210;21.174;2023-03-31T06:29:20;15.85;;;11.43;;
18407;SDS011;9330;52.210;21.174;2023-03-31T06:31:47;15.57;;;12.80;;
18407;SDS011;9330;52.210;21.174;2023-03-31T06:34:14;14.00;;;11.73;;
18407;SDS011;9330;52.210;21.174;2023-03-31T06:36:43;13.18;;;11.52;;
18407;SDS011;9330;52.210;21.174;2023-03-31T06:39:10;15.05;;;12.85;;
18407;SDS011;9330;52.210;21.174;2023-03-31T06:41:37;13.00;;;11.63;;
18407;SDS011;9330;52.210;21.174;2023-03-31T06:44:05;13.38;;;11.98;;
18407;SDS011;9330;52.210;21.174;2023-03-31T06:46:32;14.82;;;11.85;;
18407;SDS011;9330;52.210;21.174;2023-03-31T06:49:00;13.00;;;11.52;;
18407;SDS011;9330;52.210;21.174;2023-03-31T06:51:27;18.38;;;13.43;;
18407;SDS011;9330;52.210;21.174;2023-03-31T06:53:57;15.20;;;12.32;;
18407;SDS011;9330;52.210;21.174;2023-03-31T06:56:25;14.00;;;12.50;;
18407;SDS011;9330;52.210;21.174;2023-03-31T06:58:52;15.65;;;12.07;;
18407;SDS011;9330;52.210;21.174;2023-03-31T07:01:20;17.10;;;13.70;;
18407;SDS011;9330;52.210;21.174;2023-03-31T07:03:46;18.38;;;12.35;;
18407;SDS011;9330;52.210;21.174;2023-03-31T07:06:13;17.90;;;12.23;;
18407;SDS011;9330;52.210;21.174;2023-03-31T07:08:41;15.45;;;11.07;;
18407;SDS011;9330;52.210;21.174;2023-03-31T07:11:09;16.20;;;12.43;;
18407;SDS011;9330;52.210;21.174;2023-03-31T07:13:37;15.20;;;11.63;;
18407;SDS011;9330;52.210;21.174;2023-03-31T07:16:05;13.45;;;11.73;;
18407;SDS011;9330;52.210;21.174;2023-03-31T07:18:33;15.10;;;11.82;;
18407;SDS011;9330;52.210;21.174;2023-03-31T07:21:02;17.42;;;12.20;;
18407;SDS011;9330;52.210;21.174;2023-03-31T07:23:31;20.88;;;11.25;;
18407;SDS011;9330;52.210;21.174;2023-03-31T07:25:59;14.55;;;11.18;;
18407;SDS011;9330;52.210;21.174;2023-03-31T07:28:28;13.38;;;10.85;;
18407;SDS011;9330;52.210;21.174;2023-03-31T07:30:55;11.38;;;10.27;;
18407;SDS011;9330;52.210;21.174;2023-03-31T07:33:22;12.65;;;11.27;;
18407;SDS011;9330;52.210;21.174;2023-03-31T07:35:49;13.15;;;10.95;;
18407;SDS011;9330;52.210;21.174;2023-03-31T07:38:16;12.73;;;11.05;;
18407;SDS011;9330;52.210;21.174;2023-03-31T07:40:43;14.70;;;12.77;;
18407;SDS011;9330;52.210;21.174;2023-03-31T07:43:10;15.73;;;13.00;;
18407;SDS011;9330;52.210;21.174;2023-03-31T07:45:39;14.90;;;12.60;;
18407;SDS011;9330;52.210;21.174;2023-03-31T07:48:06;15.15;;;11.65;;
18407;SDS011;9330;52.210;21.174;2023-03-31T07:50:33;13.80;;;12.40;;
18407;SDS011;9330;52.210;21.174;2023-03-31T07:53:00;14.93;;;12.10;;
18407;SDS011;9330;52.210;21.174;2023-03-31T07:55:27;15.95;;;12.48;;
18407;SDS011;9330;52.210;21.174;2023-03-31T07:57:54;16.05;;;12.80;;
18407;SDS011;9330;52.210;21.174;2023-03-31T08:00:21;15.40;;;13.73;;
18407;SDS011;9330;52.210;21.174;2023-03-31T08:02:50;15.30;;;13.70;;
18407;SDS011;9330;52.210;21.174;2023-03-31T08:05:17;16.55;;;13.30;;
18407;SDS011;9330;52.210;21.174;2023-03-31T08:07:45;14.93;;;13.30;;
18407;SDS011;9330;52.210;21.174;2023-03-31T08:10:16;15.00;;;13.40;;
18407;SDS011;9330;52.210;21.174;2023-03-31T08:12:46;16.65;;;14.35;;
18407;SDS011;9330;52.210;21.174;2023-03-31T08:15:13;18.58;;;14.18;;
18407;SDS011;9330;52.210;21.174;2023-03-31T08:17:40;16.60;;;12.93;;
18407;SDS011;9330;52.210;21.174;2023-03-31T08:20:09;16.13;;;13.43;;
18407;SDS011;9330;52.210;21.174;2023-03-31T08:22:36;19.13;;;13.70;;
18407;SDS011;9330;52.210;21.174;2023-03-31T08:25:05;16.25;;;13.68;;
18407;SDS011;9330;52.210;21.174;2023-03-31T08:27:33;15.05;;;13.25;;
18407;SDS011;9330;52.210;21.174;2023-03-31T08:30:00;16.42;;;13.60;;
18407;SDS011;9330;52.210;21.174;2023-03-31T08:32:28;18.05;;;13.90;;
18407;SDS011;9330;52.210;21.174;2023-03-31T08:34:56;14.55;;;11.68;;
18407;SDS011;9330;52.210;21.174;2023-03-31T08:37:24;11.90;;;10.48;;
18407;SDS011;9330;52.210;21.174;2023-03-31T08:39:52;13.02;;;11.43;;
18407;SDS011;9330;52.210;21.174;2023-03-31T08:42:20;12.32;;;11.05;;
18407;SDS011;9330;52.210;21.174;2023-03-31T08:44:56;14.68;;;10.55;;
18407;SDS011;9330;52.210;21.174;2023-03-31T08:47:26;14.45;;;11.68;;
18407;SDS011;9330;52.210;21.174;2023-03-31T08:49:58;12.43;;;10.23;;
18407;SDS011;9330;52.210;21.174;2023-03-31T08:52:32;13.52;;;11.27;;
18407;SDS011;9330;52.210;21.174;2023-03-31T08:55:02;15.70;;;11.20;;
18407;SDS011;9330;52.210;21.174;2023-03-31T08:57:34;15.57;;;12.00;;
18407;SDS011;9330;52.210;21.174;2023-03-31T09:00:12;13.88;;;11.55;;
18407;SDS011;9330;52.210;21.174;2023-03-31T09:02:42;11.80;;;10.60;;
18407;SDS011;9330;52.210;21.174;2023-03-31T09:05:20;15.10;;;11.00;;
18407;SDS011;9330;52.210;21.174;2023-03-31T09:08:16;16.13;;;11.63;;
18407;SDS011;9330;52.210;21.174;2023-03-31T09:10:53;12.10;;;9.48;;
18407;SDS011;9330;52.210;21.174;2023-03-31T09:13:29;10.77;;;9.52;;
18407;SDS011;9330;52.210;21.174;2023-03-31T09:16:10;12.88;;;10.05;;
18407;SDS011;9330;52.210;21.174;2023-03-31T09:18:40;10.90;;;8.00;;
18407;SDS011;9330;52.210;21.174;2023-03-31T09:21:11;11.32;;;8.10;;
18407;SDS011;9330;52.210;21.174;2023-03-31T09:23:47;12.88;;;7.95;;
18407;SDS011;9330;52.210;21.174;2023-03-31T09:26:19;13.85;;;8.68;;
18407;SDS011;9330;52.210;21.174;2023-03-31T09:28:51;10.07;;;7.72;;
18407;SDS011;9330;52.210;21.174;2023-03-31T09:31:21;13.80;;;7.80;;
18407;SDS011;9330;52.210;21.174;2023-03-31T09:33:50;8.90;;;6.85;;
18407;SDS011;9330;52.210;21.174;2023-03-31T09:36:20;8.93;;;6.50;;
18407;SDS011;9330;52.210;21.174;2023-03-31T09:38:49;10.82;;;6.35;;
18407;SDS011;9330;52.210;21.174;2023-03-31T09:41:17;8.85;;;6.35;;
18407;SDS011;9330;52.210;21.174;2023-03-31T09:43:45;13.02;;;6.50;;
18407;SDS011;9330;52.210;21.174;2023-03-31T09:46:15;9.95;;;6.82;;
18407;SDS011;9330;52.210;21.174;2023-03-31T09:48:49;10.25;;;5.68;;
18407;SDS011;9330;52.210;21.174;2023-03-31T09:51:22;7.88;;;6.40;;
18407;SDS011;9330;52.210;21.174;2023-03-31T09:53:57;9.05;;;6.18;;
18407;SDS011;9330;52.210;21.174;2023-03-31T09:56:32;10.43;;;6.55;;
18407;SDS011;9330;52.210;21.174;2023-03-31T09:59:11;10.50;;;6.40;;
18407;SDS011;9330;52.210;21.174;2023-03-31T10:01:41;7.63;;;4.93;;
18407;SDS011;9330;52.210;21.174;2023-03-31T10:04:10;6.22;;;4.45;;
18407;SDS011;9330;52.210;21.174;2023-03-31T10:06:44;10.20;;;5.65;;
18407;SDS011;9330;52.210;21.174;2023-03-31T10:09:13;9.18;;;5.18;;
18407;SDS011;9330;52.210;21.174;2023-03-31T10:11:50;12.82;;;5.43;;
18407;SDS011;9330;52.210;21.174;2023-03-31T10:14:23;11.48;;;5.70;;
18407;SDS011;9330;52.210;21.174;2023-03-31T10:16:52;6.88;;;4.80;;
18407;SDS011;9330;52.210;21.174;2023-03-31T10:19:22;10.65;;;5.35;;
18407;SDS011;9330;52.210;21.174;2023-03-31T10:21:54;9.43;;;5.03;;
18407;SDS011;9330;52.210;21.174;2023-03-31T10:24:24;8.85;;;5.13;;
18407;SDS011;9330;52.210;21.174;2023-03-31T10:26:53;9.45;;;4.90;;
18407;SDS011;9330;52.210;21.174;2023-03-31T10:29:24;8.00;;;5.10;;
18407;SDS011;9330;52.210;21.174;2023-03-31T10:31:54;6.07;;;4.15;;
18407;SDS011;9330;52.210;21.174;2023-03-31T10:34:28;8.90;;;4.70;;
18407;SDS011;9330;52.210;21.174;2023-03-31T10:36:56;6.00;;;3.58;;
18407;SDS011;9330;52.210;21.174;2023-03-31T10:39:27;7.05;;;3.85;;
18407;SDS011;9330;52.210;21.174;2023-03-31T10:41:57;9.35;;;3.55;;
18407;SDS011;9330;52.210;21.174;2023-03-31T10:44:29;9.27;;;4.03;;
18407;SDS011;9330;52.210;21.174;2023-03-31T10:47:02;4.47;;;2.92;;
18407;SDS011;9330;52.210;21.174;2023-03-31T10:49:33;7.72;;;3.50;;
18407;SDS011;9330;52.210;21.174;2023-03-31T10:52:10;9.75;;;3.58;;
18407;SDS011;9330;52.210;21.174;2023-03-31T10:54:50;4.88;;;2.88;;
18407;SDS011;9330;52.210;21.174;2023-03-31T10:57:20;8.05;;;3.40;;
18407;SDS011;9330;52.210;21.174;2023-03-31T10:59:58;7.05;;;3.72;;
18407;SDS011;9330;52.210;21.174;2023-03-31T11:02:50;6.45;;;3.17;;
18407;SDS011;9330;52.210;21.174;2023-03-31T11:05:48;8.93;;;3.38;;
18407;SDS011;9330;52.210;21.174;2023-03-31T11:11:15;7.60;;;3.60;;
18407;SDS011;9330;52.210;21.174;2023-03-31T11:13:54;6.35;;;3.30;;
18407;SDS011;9330;52.210;21.174;2023-03-31T11:16:27;4.97;;;2.72;;
18407;SDS011;9330;52.210;21.174;2023-03-31T11:19:05;4.95;;;2.53;;
18407;SDS011;9330;52.210;21.174;2023-03-31T11:21:48;4.50;;;2.65;;
18407;SDS011;9330;52.210;21.174;2023-03-31T11:24:28;7.20;;;2.88;;
18407;SDS011;9330;52.210;21.174;2023-03-31T11:27:07;6.68;;;2.90;;
18407;SDS011;9330;52.210;21.174;2023-03-31T11:29:53;9.10;;;3.38;;
18407;SDS011;9330;52.210;21.174;2023-03-31T11:32:29;8.60;;;3.00;;
18407;SDS011;9330;52.210;21.174;2023-03-31T11:35:09;6.82;;;2.55;;
18407;SDS011;9330;52.210;21.174;2023-03-31T11:37:52;6.55;;;2.78;;
18407;SDS011;9330;52.210;21.174;2023-03-31T11:40:39;6.15;;;2.70;;
18407;SDS011;9330;52.210;21.174;2023-03-31T11:43:19;5.90;;;2.97;;
18407;SDS011;9330;52.210;21.174;2023-03-31T11:45:53;7.10;;;2.95;;
18407;SDS011;9330;52.210;21.174;2023-03-31T11:48:25;8.20;;;2.80;;
18407;SDS011;9330;52.210;21.174;2023-03-31T11:51:00;7.07;;;2.80;;
18407;SDS011;9330;52.210;21.174;2023-03-31T11:53:30;6.25;;;3.03;;
18407;SDS011;9330;52.210;21.174;2023-03-31T11:56:01;5.78;;;3.00;;
18407;SDS011;9330;52.210;21.174;2023-03-31T11:58:34;7.82;;;2.80;;
18407;SDS011;9330;52.210;21.174;2023-03-31T12:01:05;6.40;;;2.80;;
18407;SDS011;9330;52.210;21.174;2023-03-31T12:03:41;6.32;;;2.45;;
18407;SDS011;9330;52.210;21.174;2023-03-31T12:06:13;4.65;;;2.63;;
18407;SDS011;9330;52.210;21.174;2023-03-31T12:08:45;7.38;;;2.60;;
18407;SDS011;9330;52.210;21.174;2023-03-31T12:11:18;5.60;;;2.88;;
18407;SDS011;9330;52.210;21.174;2023-03-31T12:13:54;6.68;;;3.10;;
18407;SDS011;9330;52.210;21.174;2023-03-31T12:16:27;6.28;;;2.90;;
18407;SDS011;9330;52.210;21.174;2023-03-31T12:19:04;6.38;;;2.55;;
18407;SDS011;9330;52.210;21.174;2023-03-31T12:21:34;4.93;;;2.50;;
18407;SDS011;9330;52.210;21.174;2023-03-31T12:24:04;5.65;;;2.92;;
18407;SDS011;9330;52.210;21.174;2023-03-31T12:26:33;6.00;;;3.08;;
18407;SDS011;9330;52.210;21.174;2023-03-31T12:29:14;6.82;;;2.90;;
18407;SDS011;9330;52.210;21.174;2023-03-31T12:31:47;4.80;;;2.72;;
18407;SDS011;9330;52.210;21.174;2023-03-31T12:34:15;5.63;;;2.53;;
18407;SDS011;9330;52.210;21.174;2023-03-31T12:36:49;8.70;;;2.60;;
18407;SDS011;9330;52.210;21.174;2023-03-31T12:39:37;5.65;;;3.05;;
18407;SDS011;9330;52.210;21.174;2023-03-31T12:45:05;6.60;;;2.50;;
18407;SDS011;9330;52.210;21.174;2023-03-31T12:47:44;4.80;;;2.40;;
18407;SDS011;9330;52.210;21.174;2023-03-31T12:50:31;5.15;;;2.90;;
18407;SDS011;9330;52.210;21.174;2023-03-31T12:53:10;7.75;;;2.75;;
18407;SDS011;9330;52.210;21.174;2023-03-31T12:55:45;8.63;;;2.65;;
18407;SDS011;9330;52.210;21.174;2023-03-31T13:01:07;8.32;;;2.67;;
18407;SDS011;9330;52.210;21.174;2023-03-31T13:09:41;3.85;;;2.38;;
18407;SDS011;9330;52.210;21.174;2023-03-31T13:12:12;5.72;;;2.35;;
18407;SDS011;9330;52.210;21.174;2023-03-31T13:14:43;5.43;;;2.88;;
18407;SDS011;9330;52.210;21.174;2023-03-31T13:17:24;7.72;;;3.03;;
18407;SDS011;9330;52.210;21.174;2023-03-31T13:19:54;3.97;;;2.53;;
18407;SDS011;9330;52.210;21.174;2023-03-31T13:22:29;3.60;;;2.10;;
18407;SDS011;9330;52.210;21.174;2023-03-31T13:31:04;4.15;;;2.53;;
18407;SDS011;9330;52.210;21.174;2023-03-31T13:33:34;4.60;;;2.20;;
18407;SDS011;9330;52.210;21.174;2023-03-31T13:42:28;5.05;;;2.03;;
18407;SDS011;9330;52.210;21.174;2023-03-31T13:45:22;5.35;;;2.30;;
18407;SDS011;9330;52.210;21.174;2023-03-31T13:48:09;6.63;;;2.17;;
18407;SDS011;9330;52.210;21.174;2023-03-31T13:50:52;5.63;;;2.13;;
18407;SDS011;9330;52.210;21.174;2023-03-31T13:53:46;6.75;;;2.33;;
18407;SDS011;9330;52.210;21.174;2023-03-31T13:56:34;4.68;;;1.95;;
18407;SDS011;9330;52.210;21.174;2023-03-31T14:02:32;4.82;;;2.13;;
18407;SDS011;9330;52.210;21.174;2023-03-31T14:05:24;4.00;;;1.90;;
18407;SDS011;9330;52.210;21.174;2023-03-31T14:07:57;3.33;;;2.08;;
18407;SDS011;9330;52.210;21.174;2023-03-31T14:10:29;5.82;;;2.40;;
18407;SDS011;9330;52.210;21.174;2023-03-31T14:13:05;6.20;;;2.13;;
18407;SDS011;9330;52.210;21.174;2023-03-31T14:15:34;5.15;;;2.47;;
18407;SDS011;9330;52.210;21.174;2023-03-31T14:18:03;5.28;;;2.80;;
18407;SDS011;9330;52.210;21.174;2023-03-31T14:20:33;4.03;;;2.55;;
18407;SDS011;9330;52.210;21.174;2023-03-31T14:23:12;5.35;;;2.67;;
18407;SDS011;9330;52.210;21.174;2023-03-31T14:25:50;5.20;;;2.35;;
18407;SDS011;9330;52.210;21.174;2023-03-31T14:28:30;4.55;;;2.15;;
18407;SDS011;9330;52.210;21.174;2023-03-31T14:31:14;7.45;;;2.38;;
18407;SDS011;9330;52.210;21.174;2023-03-31T14:33:47;5.28;;;3.33;;
18407;SDS011;9330;52.210;21.174;2023-03-31T14:36:24;4.80;;;3.47;;
18407;SDS011;9330;52.210;21.174;2023-03-31T14:39:01;6.15;;;3.30;;
18407;SDS011;9330;52.210;21.174;2023-03-31T14:41:31;6.57;;;2.80;;
18407;SDS011;9330;52.210;21.174;2023-03-31T14:44:02;5.38;;;2.97;;
18407;SDS011;9330;52.210;21.174;2023-03-31T14:46:32;8.00;;;2.83;;
18407;SDS011;9330;52.210;21.174;2023-03-31T14:49:05;7.50;;;2.78;;
18407;SDS011;9330;52.210;21.174;2023-03-31T14:51:41;10.05;;;2.40;;
18407;SDS011;9330;52.210;21.174;2023-03-31T14:54:14;7.05;;;2.33;;
18407;SDS011;9330;52.210;21.174;2023-03-31T14:56:44;3.55;;;1.75;;
18407;SDS011;9330;52.210;21.174;2023-03-31T14:59:14;4.28;;;2.20;;
18407;SDS011;9330;52.210;21.174;2023-03-31T15:01:45;5.72;;;2.42;;
18407;SDS011;9330;52.210;21.174;2023-03-31T15:04:15;4.68;;;2.60;;
18407;SDS011;9330;52.210;21.174;2023-03-31T15:06:45;7.75;;;3.10;;
18407;SDS011;9330;52.210;21.174;2023-03-31T15:09:17;6.68;;;3.05;;
18407;SDS011;9330;52.210;21.174;2023-03-31T15:11:46;14.82;;;5.30;;
18407;SDS011;9330;52.210;21.174;2023-03-31T15:14:18;11.13;;;4.90;;
18407;SDS011;9330;52.210;21.174;2023-03-31T15:16:46;14.02;;;5.30;;
18407;SDS011;9330;52.210;21.174;2023-03-31T15:19:16;10.05;;;4.93;;
18407;SDS011;9330;52.210;21.174;2023-03-31T15:21:44;10.45;;;4.30;;
18407;SDS011;9330;52.210;21.174;2023-03-31T15:24:20;7.78;;;4.00;;
18407;SDS011;9330;52.210;21.174;2023-03-31T15:26:49;10.40;;;4.40;;
18407;SDS011;9330;52.210;21.174;2023-03-31T15:29:22;10.15;;;4.03;;
18407;SDS011;9330;52.210;21.174;2023-03-31T15:31:55;11.70;;;4.32;;
18407;SDS011;9330;52.210;21.174;2023-03-31T15:34:24;7.63;;;4.10;;
18407;SDS011;9330;52.210;21.174;2023-03-31T15:36:53;7.68;;;4.00;;
18407;SDS011;9330;52.210;21.174;2023-03-31T15:39:23;12.13;;;4.47;;
18407;SDS011;9330;52.210;21.174;2023-03-31T15:41:52;8.70;;;5.10;;